Time;durP1;ratioP1;P1;durP2;ratioP2;P2;SDS_P1;SDS_P2;PMS_P1;PMS_P2;Temp;Humidity;BMP_temperature;BMP_pressure;BME280_temperature;BME280_humidity;BME280_pressure;Samples;Min_cycle;Max_cycle;Signal;HPM_P1;HPM_P2
2023/01/16 00:01:36;;;;;;;11.07;4.70;;;4.50;99.90;;;;;;6184087;23;20071;-79
2023/01/16 00:04:02;;;;;;;9.27;4.25;;;4.30;99.90;;;;;;6187613;23;20341;-79
2023/01/16 00:06:27;;;;;;;6.50;4.32;;;4.30;99.90;;;;;;6210997;23;20147;-83
2023/01/16 00:08:53;;;;;;;7.72;3.97;;;4.10;99.90;;;;;;6185672;23;20028;-79
2023/01/16 00:11:18;;;;;;;9.25;4.05;;;4.10;99.90;;;;;;6183887;23;20021;-81
2023/01/16 00:13:44;;;;;;;6.55;4.38;;;4.10;99.90;;;;;;6185455;23;20009;-80
2023/01/16 00:16:10;;;;;;;8.07;4.50;;;4.50;99.90;;;;;;6184592;23;20079;-82
2023/01/16 00:18:35;;;;;;;11.90;4.72;;;4.60;99.90;;;;;;6210977;23;20353;-83
2023/01/16 00:21:01;;;;;;;10.85;4.95;;;4.20;99.90;;;;;;6184429;23;20370;-82
2023/01/16 00:23:27;;;;;;;9.65;5.15;;;4.30;99.90;;;;;;6184968;23;20747;-81
2023/01/16 00:25:53;;;;;;;10.32;5.32;;;4.70;99.90;;;;;;6210595;23;20012;-82
2023/01/16 00:28:18;;;;;;;9.30;5.22;;;4.20;99.90;;;;;;6187011;23;20103;-81
2023/01/16 00:30:44;;;;;;;13.27;5.00;;;4.70;99.90;;;;;;6210609;23;20017;-81
2023/01/16 00:33:10;;;;;;;10.55;5.38;;;4.50;99.90;;;;;;6209855;23;20043;-82
2023/01/16 00:35:36;;;;;;;9.30;5.28;;;4.20;99.90;;;;;;6211114;23;20008;-83
2023/01/16 00:38:01;;;;;;;11.23;4.97;;;4.50;99.90;;;;;;6208969;23;20048;-84
2023/01/16 00:40:28;;;;;;;7.78;4.68;;;4.10;99.90;;;;;;6186773;23;20734;-83
2023/01/16 00:42:53;;;;;;;8.43;5.07;;;4.60;99.90;;;;;;6185014;23;20074;-82
2023/01/16 00:45:19;;;;;;;10.93;5.20;;;4.60;99.90;;;;;;6184890;23;20012;-81
2023/01/16 00:47:45;;;;;;;9.07;4.30;;;4.10;99.90;;;;;;6210441;23;20066;-82
2023/01/16 00:50:11;;;;;;;9.52;4.85;;;4.30;99.90;;;;;;6184459;23;20589;-80
2023/01/16 00:52:37;;;;;;;8.25;4.22;;;4.10;99.90;;;;;;6187564;23;20104;-80
2023/01/16 00:55:03;;;;;;;11.65;4.45;;;3.90;99.90;;;;;;6184888;23;20445;-80
2023/01/16 00:57:29;;;;;;;14.23;4.60;;;4.20;99.90;;;;;;6209768;23;20021;-80
2023/01/16 00:59:55;;;;;;;10.45;4.35;;;4.20;99.90;;;;;;6185200;23;20012;-80
2023/01/16 01:02:20;;;;;;;10.90;4.47;;;4.00;99.90;;;;;;6183435;23;20009;-80
2023/01/16 01:04:46;;;;;;;9.65;4.22;;;3.80;99.90;;;;;;6210555;23;20013;-80
2023/01/16 01:07:12;;;;;;;9.40;4.43;;;4.00;99.90;;;;;;6159843;23;20031;-81
2023/01/16 01:09:37;;;;;;;9.45;4.00;;;4.10;99.90;;;;;;6211390;23;20302;-80
2023/01/16 01:12:03;;;;;;;13.63;4.32;;;3.60;99.90;;;;;;6185666;23;20086;-80
2023/01/16 01:14:29;;;;;;;9.65;4.00;;;3.50;99.90;;;;;;6210219;23;20350;-79
2023/01/16 01:16:54;;;;;;;7.28;3.60;;;3.50;99.90;;;;;;6159442;23;20008;-81
2023/01/16 01:19:20;;;;;;;10.07;4.00;;;3.50;99.90;;;;;;6184790;23;20081;-82
2023/01/16 01:21:46;;;;;;;12.98;4.03;;;3.90;99.90;;;;;;6209568;23;20111;-80
2023/01/16 01:24:12;;;;;;;8.45;4.20;;;3.60;99.90;;;;;;6210329;23;20015;-80
2023/01/16 01:26:38;;;;;;;8.50;3.33;;;3.80;99.90;;;;;;6210449;23;20025;-82
2023/01/16 01:29:03;;;;;;;12.10;3.83;;;4.00;99.90;;;;;;6208396;23;20055;-82
2023/01/16 01:31:30;;;;;;;11.57;3.90;;;3.90;99.90;;;;;;6182398;23;20694;-80
2023/01/16 01:33:55;;;;;;;8.07;3.35;;;3.50;99.90;;;;;;6209344;23;20095;-82
2023/01/16 01:36:21;;;;;;;7.07;3.17;;;4.00;99.90;;;;;;6184594;23;20106;-80
2023/01/16 01:38:49;;;;;;;9.43;3.42;;;3.90;99.90;;;;;;6184255;23;20024;-80
2023/01/16 01:41:15;;;;;;;12.93;3.38;;;3.50;99.90;;;;;;6183370;23;20440;-81
2023/01/16 01:43:42;;;;;;;8.35;3.25;;;3.50;99.90;;;;;;6184871;23;20019;-82
2023/01/16 01:46:18;;;;;;;8.48;3.35;;;3.80;99.90;;;;;;6209357;23;20059;-81
2023/01/16 01:48:45;;;;;;;6.03;3.13;;;4.10;99.90;;;;;;6211661;23;20354;-80
2023/01/16 01:51:18;;;;;;;8.73;3.30;;;4.00;99.90;;;;;;6184769;23;20456;-79
2023/01/16 01:54:07;;;;;;;8.73;3.53;;;3.40;99.90;;;;;;6209454;23;20776;-80
2023/01/16 01:56:42;;;;;;;10.85;3.10;;;3.70;99.90;;;;;;6184779;23;20386;-81
2023/01/16 01:59:17;;;;;;;6.40;2.90;;;3.60;99.90;;;;;;6208869;23;20013;-80
2023/01/16 02:01:43;;;;;;;9.73;3.30;;;3.90;99.90;;;;;;6209076;23;20019;-81
2023/01/16 02:04:30;;;;;;;8.38;3.22;;;3.60;99.90;;;;;;6210145;23;20155;-79
2023/01/16 02:07:00;;;;;;;7.35;3.00;;;3.90;99.90;;;;;;6185205;23;20183;-81
2023/01/16 02:09:26;;;;;;;8.57;3.03;;;3.70;99.90;;;;;;6183875;23;20095;-81
2023/01/16 02:12:06;;;;;;;7.63;3.20;;;3.80;99.90;;;;;;6209313;23;20079;-79
2023/01/16 02:14:36;;;;;;;7.05;2.83;;;3.40;99.90;;;;;;6210051;23;20004;-82
2023/01/16 02:20:11;;;;;;;7.97;2.97;;;4.00;99.90;;;;;;6209302;23;20083;-80
2023/01/16 02:22:39;;;;;;;10.30;3.15;;;3.40;99.90;;;;;;6183033;23;20020;-81
2023/01/16 02:26:01;;;;;;;9.77;3.00;;;3.90;99.90;;;;;;6184359;23;20048;-81
2023/01/16 02:28:57;;;;;;;7.72;2.55;;;4.00;99.90;;;;;;6209797;23;20421;-81
2023/01/16 02:31:44;;;;;;;8.38;3.17;;;3.60;99.90;;;;;;6162501;23;20020;-82
2023/01/16 02:34:18;;;;;;;11.85;3.00;;;4.10;99.90;;;;;;6209504;23;20092;-82
2023/01/16 02:37:15;;;;;;;12.32;2.88;;;3.70;99.90;;;;;;6183575;23;20183;-81
2023/01/16 02:40:08;;;;;;;7.22;2.92;;;3.60;99.90;;;;;;6184424;23;20016;-82
2023/01/16 02:42:44;;;;;;;6.00;2.97;;;3.70;99.90;;;;;;6069137;23;20029;-80
2023/01/16 02:45:57;;;;;;;10.82;3.28;;;3.70;99.90;;;;;;6070866;23;20430;-80
2023/01/16 02:48:41;;;;;;;11.63;3.15;;;4.20;99.90;;;;;;6032773;23;20384;-80
2023/01/16 02:51:20;;;;;;;13.85;3.42;;;3.80;99.90;;;;;;6032678;23;20510;-81
2023/01/16 02:54:10;;;;;;;10.13;3.22;;;3.80;99.90;;;;;;5986384;23;20022;-79
2023/01/16 02:57:10;;;;;;;15.52;3.10;;;3.80;99.90;;;;;;6036399;23;20055;-79
2023/01/16 02:59:36;;;;;;;10.18;3.08;;;4.20;99.90;;;;;;6064451;23;20060;-80
2023/01/16 03:02:02;;;;;;;10.73;3.10;;;3.70;99.90;;;;;;6036700;23;20479;-80
2023/01/16 03:04:50;;;;;;;13.00;3.22;;;3.90;99.90;;;;;;6058572;23;20328;-81
2023/01/16 03:07:52;;;;;;;10.27;3.00;;;4.20;99.90;;;;;;6009129;23;20321;-80
2023/01/16 03:10:30;;;;;;;10.13;3.10;;;4.20;99.90;;;;;;5985522;23;20042;-82
2023/01/16 03:13:45;;;;;;;7.03;2.80;;;3.70;99.90;;;;;;6031314;23;20026;-82
2023/01/16 03:16:33;;;;;;;12.60;3.20;;;4.10;99.90;;;;;;6004803;23;20027;-81
2023/01/16 03:19:37;;;;;;;14.00;3.35;;;4.10;99.90;;;;;;6011824;23;20098;-81
2023/01/16 03:22:17;;;;;;;13.70;3.20;;;3.80;99.90;;;;;;5974763;24;20026;-80
2023/01/16 03:25:13;;;;;;;12.25;3.50;;;3.70;99.90;;;;;;6020550;23;20054;-80
2023/01/16 03:27:49;;;;;;;10.52;3.03;;;4.00;99.90;;;;;;6012773;23;20478;-80
2023/01/16 03:30:23;;;;;;;7.93;3.38;;;4.10;99.90;;;;;;6072170;23;20023;-79
2023/01/16 03:33:15;;;;;;;9.23;3.20;;;4.00;99.90;;;;;;6059572;23;20431;-81
2023/01/16 03:35:56;;;;;;;10.80;3.40;;;4.20;99.90;;;;;;6064099;23;20110;-80
2023/01/16 03:38:25;;;;;;;10.50;3.35;;;3.80;99.90;;;;;;6037563;23;20011;-83
2023/01/16 03:40:56;;;;;;;11.48;3.08;;;3.70;99.90;;;;;;6038811;23;20018;-82
2023/01/16 03:43:29;;;;;;;7.30;2.63;;;4.10;99.90;;;;;;6061580;23;20377;-79
2023/01/16 03:46:03;;;;;;;11.02;3.45;;;3.60;99.90;;;;;;6037804;23;20019;-81
2023/01/16 03:48:47;;;;;;;13.05;3.20;;;3.90;99.90;;;;;;6038419;23;20042;-81
2023/01/16 03:51:20;;;;;;;9.52;2.70;;;3.50;99.90;;;;;;6014018;23;20106;-80
2023/01/16 03:54:01;;;;;;;12.98;3.17;;;3.60;99.90;;;;;;6122573;23;20097;-82
2023/01/16 03:56:43;;;;;;;6.35;3.00;;;3.90;99.90;;;;;;6124720;23;20176;-83
2023/01/16 03:59:09;;;;;;;12.02;3.22;;;3.70;99.90;;;;;;6183450;23;20087;-82
2023/01/16 04:01:54;;;;;;;12.25;3.33;;;3.80;99.90;;;;;;6185177;23;20020;-81
2023/01/16 04:04:29;;;;;;;12.35;2.92;;;3.70;99.90;;;;;;6185563;23;20346;-82
2023/01/16 04:07:39;;;;;;;8.25;3.22;;;3.60;99.90;;;;;;6185670;23;20728;-82
2023/01/16 04:10:27;;;;;;;7.55;3.10;;;3.50;99.90;;;;;;6095974;23;20014;-81
2023/01/16 04:13:00;;;;;;;9.60;3.53;;;3.60;99.90;;;;;;6121381;23;20366;-82
2023/01/16 04:15:29;;;;;;;9.38;3.88;;;3.80;99.90;;;;;;6121298;23;20346;-80
2023/01/16 04:17:55;;;;;;;9.43;3.50;;;3.60;99.90;;;;;;6122016;23;20021;-81
2023/01/16 04:20:23;;;;;;;12.60;4.15;;;3.70;99.90;;;;;;6097902;23;20018;-81
2023/01/16 04:22:49;;;;;;;9.48;4.38;;;4.20;99.90;;;;;;6121652;23;20025;-80
2023/01/16 04:25:18;;;;;;;7.60;3.70;;;3.80;99.90;;;;;;6121749;23;20025;-80
2023/01/16 04:27:43;;;;;;;11.43;4.30;;;4.10;99.90;;;;;;6097999;23;20402;-80
2023/01/16 04:30:10;;;;;;;15.55;4.30;;;4.00;99.90;;;;;;6122851;23;20045;-82
2023/01/16 04:32:36;;;;;;;12.20;3.97;;;4.00;99.90;;;;;;6097193;23;20009;-79
2023/01/16 04:35:02;;;;;;;14.40;4.22;;;4.10;99.90;;;;;;6122199;23;20373;-81
2023/01/16 04:37:27;;;;;;;11.45;4.18;;;3.90;99.90;;;;;;6097693;23;20010;-81
2023/01/16 04:39:53;;;;;;;11.25;4.38;;;4.10;99.90;;;;;;6097759;23;20442;-80
2023/01/16 04:42:19;;;;;;;14.30;4.93;;;4.10;99.90;;;;;;6096483;23;20123;-80
2023/01/16 04:44:46;;;;;;;13.18;4.55;;;3.70;99.90;;;;;;6197155;23;20301;-80
2023/01/16 04:47:12;;;;;;;9.10;5.10;;;4.10;99.90;;;;;;6185878;23;20083;-83
2023/01/16 04:49:37;;;;;;;13.60;5.32;;;4.20;99.90;;;;;;6187722;23;20013;-81
2023/01/16 04:52:03;;;;;;;9.63;5.20;;;4.20;99.90;;;;;;6213038;23;20110;-81
2023/01/16 04:54:29;;;;;;;14.50;6.00;;;3.70;99.90;;;;;;6186633;23;20044;-79
2023/01/16 04:56:55;;;;;;;15.23;5.78;;;3.90;99.90;;;;;;6212349;23;20035;-81
2023/01/16 04:59:20;;;;;;;13.40;7.15;;;3.60;99.90;;;;;;6212512;23;20028;-80
2023/01/16 05:01:46;;;;;;;11.10;6.47;;;3.80;99.90;;;;;;6211119;23;20020;-80
2023/01/16 05:04:14;;;;;;;13.50;6.50;;;4.20;99.90;;;;;;6183652;23;20020;-80
2023/01/16 05:06:39;;;;;;;12.40;6.38;;;3.80;99.90;;;;;;6209942;23;20020;-80
2023/01/16 05:09:06;;;;;;;19.98;6.93;;;4.10;99.90;;;;;;6184412;23;20017;-79
2023/01/16 05:11:32;;;;;;;13.75;6.75;;;4.00;99.90;;;;;;6184618;23;20012;-79
2023/01/16 05:13:58;;;;;;;13.65;6.70;;;3.90;99.90;;;;;;6184860;23;20437;-81
2023/01/16 05:16:24;;;;;;;15.32;6.95;;;3.80;99.90;;;;;;6211417;23;20091;-81
2023/01/16 05:18:49;;;;;;;18.77;6.80;;;3.70;99.90;;;;;;6211048;23;20116;-82
2023/01/16 05:21:15;;;;;;;13.20;7.00;;;3.70;99.90;;;;;;6212052;23;20403;-81
2023/01/16 05:23:41;;;;;;;13.30;7.20;;;3.80;99.90;;;;;;6210858;23;20012;-79
2023/01/16 05:26:06;;;;;;;14.38;6.85;;;3.70;99.90;;;;;;6184800;23;20092;-82
2023/01/16 05:28:33;;;;;;;15.18;7.32;;;3.70;99.90;;;;;;6184512;23;20016;-80
2023/01/16 05:31:00;;;;;;;15.07;7.88;;;3.50;99.90;;;;;;6185755;23;20056;-80
2023/01/16 05:33:26;;;;;;;16.70;7.97;;;3.40;99.90;;;;;;6184587;23;20100;-81
2023/01/16 05:35:52;;;;;;;16.83;7.90;;;3.90;99.90;;;;;;6211774;23;20124;-80
2023/01/16 05:38:18;;;;;;;16.90;7.32;;;3.50;99.90;;;;;;6186318;23;20044;-81
2023/01/16 05:40:45;;;;;;;14.48;6.93;;;3.70;99.90;;;;;;6186780;23;20016;-80
2023/01/16 05:43:11;;;;;;;12.18;8.00;;;3.70;99.90;;;;;;6186872;23;20150;-81
2023/01/16 05:45:37;;;;;;;15.30;8.00;;;3.10;99.90;;;;;;6187356;23;20091;-81
2023/01/16 05:48:03;;;;;;;15.70;7.78;;;3.50;99.90;;;;;;6186134;23;20036;-79
2023/01/16 05:50:28;;;;;;;17.40;8.55;;;2.90;99.90;;;;;;6211661;23;20056;-81
2023/01/16 05:52:54;;;;;;;14.60;7.93;;;2.90;99.90;;;;;;6211635;23;20019;-80
2023/01/16 05:55:20;;;;;;;15.07;8.30;;;3.00;99.90;;;;;;6211609;23;20012;-80
2023/01/16 05:57:45;;;;;;;17.73;8.63;;;3.00;99.90;;;;;;6211423;23;20048;-79
2023/01/16 06:00:12;;;;;;;23.85;9.15;;;2.80;99.90;;;;;;6211796;23;20017;-82
2023/01/16 06:02:37;;;;;;;18.63;8.93;;;3.40;99.90;;;;;;6184966;23;20027;-80
2023/01/16 06:05:03;;;;;;;18.30;9.40;;;3.30;99.90;;;;;;6184185;23;20111;-79
2023/01/16 06:07:29;;;;;;;18.50;10.15;;;3.30;99.90;;;;;;6183996;23;20432;-79
2023/01/16 06:09:55;;;;;;;22.33;10.57;;;2.90;99.90;;;;;;6184384;23;20017;-80
2023/01/16 06:12:20;;;;;;;25.58;10.65;;;2.90;99.90;;;;;;6184271;23;20013;-81
2023/01/16 06:14:46;;;;;;;16.98;11.00;;;2.80;99.90;;;;;;6209310;23;20087;-79
2023/01/16 06:17:15;;;;;;;16.95;10.32;;;3.20;99.90;;;;;;6208680;23;20379;-80
2023/01/16 06:19:42;;;;;;;19.70;10.95;;;3.20;99.90;;;;;;6185159;23;20012;-81
2023/01/16 06:22:08;;;;;;;16.17;10.73;;;2.80;99.90;;;;;;6186217;23;20051;-79
2023/01/16 06:24:33;;;;;;;20.75;11.80;;;3.30;99.90;;;;;;6211490;23;20013;-79
2023/01/16 06:27:36;;;;;;;20.08;12.15;;;2.70;99.90;;;;;;6187260;23;20016;-79
2023/01/16 06:30:03;;;;;;;19.90;11.98;;;3.30;99.90;;;;;;6193876;23;20024;-78
2023/01/16 06:32:29;;;;;;;24.63;12.52;;;2.90;99.90;;;;;;6191580;23;20444;-80
2023/01/16 06:34:54;;;;;;;28.40;14.52;;;2.90;99.90;;;;;;6210983;23;20013;-80
2023/01/16 06:37:20;;;;;;;29.42;15.02;;;3.10;99.90;;;;;;6185412;23;20020;-79
2023/01/16 06:39:47;;;;;;;24.80;14.55;;;3.10;99.90;;;;;;6186806;23;20016;-80
2023/01/16 06:42:12;;;;;;;26.42;13.15;;;3.10;99.90;;;;;;6208762;23;20227;-79
2023/01/16 06:44:38;;;;;;;21.95;13.25;;;3.20;99.90;;;;;;6183889;23;20389;-79
2023/01/16 06:47:04;;;;;;;21.38;13.25;;;3.40;99.90;;;;;;6210484;23;20027;-81
2023/01/16 06:49:29;;;;;;;25.45;13.77;;;3.20;99.90;;;;;;6208081;23;20023;-81
2023/01/16 06:51:55;;;;;;;29.63;13.43;;;3.20;99.90;;;;;;6182795;23;20020;-81
2023/01/16 06:54:20;;;;;;;19.67;12.25;;;3.10;99.90;;;;;;6209713;23;20070;-80
2023/01/16 06:57:05;;;;;;;22.83;13.20;;;3.00;99.90;;;;;;6210107;23;20016;-82
2023/01/16 06:59:31;;;;;;;20.55;11.95;;;3.30;99.90;;;;;;6183802;23;20071;-81
2023/01/16 07:01:56;;;;;;;21.52;11.77;;;3.20;99.90;;;;;;6208159;23;20020;-81
2023/01/16 07:04:22;;;;;;;21.40;11.95;;;3.00;99.90;;;;;;6208848;23;20374;-80
2023/01/16 07:06:50;;;;;;;20.77;11.52;;;3.50;99.90;;;;;;6182100;23;20017;-79
2023/01/16 07:09:16;;;;;;;20.05;11.80;;;3.00;99.90;;;;;;6182705;23;20051;-79
2023/01/16 07:11:41;;;;;;;25.17;11.70;;;3.30;99.90;;;;;;6185362;23;20017;-82
2023/01/16 07:22:38;;;;;;;20.13;10.55;;;3.30;99.90;;;;;;6207768;23;20016;-79
2023/01/16 07:25:09;;;;;;;23.58;11.13;;;3.30;99.90;;;;;;6181479;23;20099;-79
2023/01/16 07:27:35;;;;;;;23.55;11.48;;;2.80;99.90;;;;;;6183904;23;20055;-80
2023/01/16 07:30:01;;;;;;;21.75;11.40;;;2.80;99.90;;;;;;6183197;23;20341;-77
2023/01/16 07:32:26;;;;;;;24.25;11.27;;;3.30;99.90;;;;;;6179230;23;20035;-78
2023/01/16 07:34:52;;;;;;;23.70;11.30;;;3.30;99.90;;;;;;6180574;23;20023;-79
2023/01/16 07:37:17;;;;;;;21.08;10.88;;;3.00;99.90;;;;;;6179742;23;20016;-79
2023/01/16 07:39:43;;;;;;;17.05;10.18;;;2.80;99.90;;;;;;6204809;23;20016;-79
2023/01/16 07:42:09;;;;;;;20.38;10.38;;;2.80;99.90;;;;;;6206518;23;20091;-79
2023/01/16 07:44:34;;;;;;;19.23;10.07;;;3.30;99.90;;;;;;6205814;23;20126;-80
2023/01/16 07:47:00;;;;;;;21.88;10.60;;;3.30;99.90;;;;;;6180863;23;20087;-79
2023/01/16 07:49:26;;;;;;;24.98;10.02;;;2.90;99.90;;;;;;6184558;23;20044;-79
2023/01/16 07:51:51;;;;;;;25.95;9.68;;;2.90;99.90;;;;;;6210636;23;20017;-78
2023/01/16 07:54:17;;;;;;;19.67;9.32;;;2.90;99.90;;;;;;6208668;23;20016;-79
2023/01/16 07:56:43;;;;;;;20.08;9.70;;;2.80;99.90;;;;;;6211186;23;20016;-78
2023/01/16 07:59:08;;;;;;;19.27;9.13;;;3.10;99.90;;;;;;6211252;23;20009;-80
2023/01/16 08:01:34;;;;;;;17.13;9.68;;;2.80;99.90;;;;;;6208761;23;20048;-79
2023/01/16 08:04:00;;;;;;;20.60;9.80;;;3.00;99.90;;;;;;6211219;23;20412;-80
2023/01/16 08:06:26;;;;;;;17.02;9.80;;;3.10;99.90;;;;;;6210842;23;20009;-78
2023/01/16 08:08:51;;;;;;;21.48;10.32;;;3.40;99.90;;;;;;6185936;23;20036;-79
2023/01/16 08:11:35;;;;;;;21.85;10.30;;;3.40;99.90;;;;;;6184247;23;20079;-78
2023/01/16 08:14:02;;;;;;;23.05;10.43;;;3.30;99.90;;;;;;6182429;23;20012;-82
2023/01/16 08:16:28;;;;;;;19.88;9.88;;;3.10;99.90;;;;;;6207251;23;20412;-82
2023/01/16 08:18:53;;;;;;;14.70;9.45;;;3.00;99.90;;;;;;6183016;23;20023;-79
2023/01/16 08:21:19;;;;;;;20.52;9.50;;;2.90;99.90;;;;;;6212017;23;20016;-80
2023/01/16 08:23:45;;;;;;;24.23;10.48;;;3.00;99.90;;;;;;6211402;23;20017;-81
2023/01/16 08:26:11;;;;;;;17.95;9.23;;;3.40;99.90;;;;;;6204411;23;20390;-79
2023/01/16 08:28:37;;;;;;;20.42;9.20;;;3.00;99.90;;;;;;6180294;23;20034;-81
2023/01/16 08:31:07;;;;;;;22.20;9.95;;;3.30;99.90;;;;;;6180719;23;20016;-78
2023/01/16 08:33:36;;;;;;;22.05;9.50;;;3.00;99.90;;;;;;6205639;23;20059;-80
2023/01/16 08:36:04;;;;;;;22.25;9.88;;;3.50;99.90;;;;;;6207105;23;20082;-80
2023/01/16 08:38:29;;;;;;;17.65;9.30;;;3.10;99.90;;;;;;6205402;23;20539;-79
2023/01/16 08:40:55;;;;;;;19.02;8.73;;;3.60;99.90;;;;;;6184395;23;20017;-78
2023/01/16 08:51:38;;;;;;;20.25;8.27;;;3.10;99.90;;;;;;6211767;23;20452;-80
2023/01/16 08:54:04;;;;;;;20.40;8.35;;;3.40;99.90;;;;;;6211818;23;20123;-80
2023/01/16 08:56:30;;;;;;;19.17;8.43;;;3.20;99.90;;;;;;6187060;23;20013;-80
2023/01/16 08:58:55;;;;;;;17.65;8.65;;;3.40;99.90;;;;;;6212781;23;20091;-78
2023/01/16 09:01:22;;;;;;;16.40;8.65;;;3.30;99.90;;;;;;6186283;23;20031;-80
2023/01/16 09:03:48;;;;;;;16.48;7.53;;;3.40;99.90;;;;;;6187429;23;20015;-80
2023/01/16 09:06:13;;;;;;;16.63;7.20;;;3.60;99.90;;;;;;6187344;23;20047;-81
2023/01/16 09:08:39;;;;;;;17.38;7.78;;;3.80;99.90;;;;;;6187269;23;20016;-79
2023/01/16 09:13:49;;;;;;;23.88;8.05;;;3.50;99.90;;;;;;6210950;23;20096;-81
2023/01/16 09:16:20;;;;;;;17.05;7.50;;;3.80;99.90;;;;;;6210407;23;20016;-80
2023/01/16 09:18:45;;;;;;;13.65;7.68;;;3.40;99.90;;;;;;6219029;23;20040;-79
2023/01/16 09:21:11;;;;;;;17.40;7.80;;;3.40;99.90;;;;;;6184808;23;20074;-79
2023/01/16 09:23:37;;;;;;;13.60;7.63;;;3.90;99.90;;;;;;6182911;23;20016;-79
2023/01/16 09:26:03;;;;;;;14.50;7.07;;;3.60;99.90;;;;;;6183213;23;20082;-78
2023/01/16 09:28:28;;;;;;;13.55;6.80;;;3.50;99.90;;;;;;6209265;23;20048;-79
2023/01/16 09:30:54;;;;;;;13.93;7.43;;;3.80;99.90;;;;;;6208701;23;20508;-79
2023/01/16 09:33:23;;;;;;;12.00;7.50;;;4.00;99.90;;;;;;6209811;23;20020;-78
2023/01/16 09:35:49;;;;;;;19.05;7.85;;;4.00;99.90;;;;;;6184073;23;20008;-78
2023/01/16 09:38:14;;;;;;;15.70;6.72;;;3.80;99.90;;;;;;6183926;23;20574;-78
2023/01/16 09:41:01;;;;;;;10.68;6.45;;;3.70;99.90;;;;;;6186328;23;20146;-78
2023/01/16 09:43:36;;;;;;;14.15;7.18;;;3.60;99.90;;;;;;6185415;23;20016;-80
2023/01/16 09:46:08;;;;;;;10.48;6.30;;;3.60;99.90;;;;;;6182994;23;20387;-80
2023/01/16 09:48:38;;;;;;;10.13;6.07;;;3.60;99.90;;;;;;6185367;23;20021;-78
2023/01/16 09:51:14;;;;;;;18.20;6.70;;;4.10;99.90;;;;;;6211208;23;20154;-78
2023/01/16 09:59:39;;;;;;;13.90;6.07;;;4.10;99.90;;;;;;6215470;23;20405;-80
2023/01/16 10:02:36;;;;;;;11.35;5.40;;;3.80;99.90;;;;;;6213443;23;20071;-81
2023/01/16 10:05:04;;;;;;;15.43;5.95;;;3.70;99.90;;;;;;6196566;23;20013;-79
2023/01/16 10:07:39;;;;;;;8.50;5.00;;;4.20;99.90;;;;;;6197444;23;20016;-81
2023/01/16 10:10:07;;;;;;;;;;;3.90;99.90;;;;;;6188170;23;20032;-82
2023/01/16 10:12:36;;;;;;;11.55;4.60;;;3.90;99.90;;;;;;6210940;23;19989;-81
2023/01/16 10:15:31;;;;;;;11.48;4.82;;;4.10;99.90;;;;;;6212053;23;20047;-80
2023/01/16 10:18:13;;;;;;;12.85;4.93;;;4.00;99.90;;;;;;6210126;23;20023;-82
2023/01/16 10:21:08;;;;;;;12.73;4.90;;;4.10;99.90;;;;;;6186079;23;20060;-81
2023/01/16 10:23:37;;;;;;;7.18;4.18;;;4.00;99.90;;;;;;6184738;23;20023;-81
2023/01/16 10:26:26;;;;;;;12.32;4.65;;;4.00;99.90;;;;;;6183144;23;20017;-81
2023/01/16 10:29:09;;;;;;;14.23;4.70;;;3.80;99.90;;;;;;6183541;23;20336;-81
2023/01/16 10:31:42;;;;;;;10.48;4.28;;;3.80;99.90;;;;;;6210280;23;20020;-81
2023/01/16 10:34:20;;;;;;;10.20;3.50;;;4.10;99.90;;;;;;6181948;23;20012;-80
2023/01/16 10:36:49;;;;;;;7.22;3.85;;;3.80;99.90;;;;;;6207445;23;20316;-82
2023/01/16 10:39:19;;;;;;;9.18;3.97;;;3.90;99.90;;;;;;6183986;23;20091;-80
2023/01/16 10:50:56;;;;;;;10.38;3.17;;;4.40;99.90;;;;;;6208061;23;20394;-82
2023/01/16 10:53:22;;;;;;;6.57;3.00;;;3.90;99.90;;;;;;6184252;23;20059;-80
2023/01/16 10:55:53;;;;;;;8.05;3.25;;;4.30;99.90;;;;;;6209358;23;20027;-79
2023/01/16 10:58:27;;;;;;;9.65;3.20;;;3.90;99.90;;;;;;6184215;23;20023;-81
2023/01/16 11:01:01;;;;;;;9.93;3.33;;;4.00;99.90;;;;;;6209612;23;20020;-81
2023/01/16 11:03:44;;;;;;;5.40;2.63;;;4.20;99.90;;;;;;6183270;23;20138;-79
2023/01/16 11:06:22;;;;;;;6.20;2.88;;;4.00;99.90;;;;;;6209186;23;20157;-79
2023/01/16 11:09:02;;;;;;;7.18;2.40;;;4.10;99.90;;;;;;6207291;23;20013;-80
2023/01/16 11:20:24;;;;;;;5.85;2.00;;;3.50;99.90;;;;;;6207403;23;20168;-79
2023/01/16 11:23:11;;;;;;;5.05;2.00;;;3.40;99.90;;;;;;6180005;23;20519;-79
2023/01/16 11:25:37;;;;;;;7.15;2.03;;;3.80;99.90;;;;;;6207112;23;20107;-80
2023/01/16 11:28:06;;;;;;;4.93;1.90;;;3.50;99.90;;;;;;6179980;23;20013;-79
2023/01/16 11:30:37;;;;;;;2.58;1.80;;;3.90;99.90;;;;;;6181259;23;20444;-78
2023/01/16 11:33:07;;;;;;;4.60;1.80;;;3.60;99.90;;;;;;6181359;23;20035;-79
2023/01/16 11:35:35;;;;;;;5.88;1.92;;;3.90;99.90;;;;;;6180780;23;20017;-80
2023/01/16 11:38:05;;;;;;;5.80;1.80;;;3.40;99.90;;;;;;6206353;23;20087;-79
2023/01/16 11:40:43;;;;;;;4.47;2.20;;;3.50;99.90;;;;;;6182512;23;20475;-82
2023/01/16 11:46:02;;;;;;;4.55;2.00;;;3.70;99.90;;;;;;6209128;23;20103;-81
2023/01/16 11:48:33;;;;;;;5.28;1.80;;;3.60;99.90;;;;;;6210710;23;20008;-81
2023/01/16 11:50:59;;;;;;;4.70;1.95;;;3.50;99.90;;;;;;6185256;23;20013;-80
2023/01/16 11:53:33;;;;;;;7.28;2.28;;;3.80;99.90;;;;;;6185087;23;20013;-80
2023/01/16 11:56:32;;;;;;;4.65;2.28;;;3.90;99.90;;;;;;6184428;23;20437;-79
2023/01/16 11:59:24;;;;;;;3.05;2.20;;;3.80;99.90;;;;;;6178385;23;20518;-79
2023/01/16 12:02:25;;;;;;;5.65;2.00;;;3.40;99.90;;;;;;6181219;23;20020;-79
2023/01/16 12:08:06;;;;;;;3.00;2.15;;;3.50;99.90;;;;;;6091602;23;20061;-80
2023/01/16 12:10:47;;;;;;;3.40;2.20;;;3.60;99.90;;;;;;6068804;23;20050;-79
2023/01/16 12:16:25;;;;;;;5.18;2.75;;;3.80;99.90;;;;;;6070849;23;20017;-79
2023/01/16 12:19:03;;;;;;;3.05;1.80;;;3.50;99.90;;;;;;6092952;23;20462;-78
2023/01/16 12:21:41;;;;;;;4.03;2.30;;;3.60;99.90;;;;;;6091574;23;20097;-80
2023/01/16 12:24:24;;;;;;;5.53;1.83;;;3.90;99.90;;;;;;6090861;23;20022;-80
2023/01/16 12:27:22;;;;;;;5.78;1.92;;;3.40;99.90;;;;;;6073214;23;20130;-79
2023/01/16 12:30:07;;;;;;;5.38;2.08;;;3.70;99.90;;;;;;6033884;23;20015;-80
2023/01/16 12:32:35;;;;;;;6.38;2.17;;;3.90;99.90;;;;;;6032862;23;20360;-79
2023/01/16 12:35:05;;;;;;;2.85;2.05;;;3.50;99.90;;;;;;6033430;23;20084;-80
2023/01/16 12:37:41;;;;;;;3.28;1.92;;;3.50;99.90;;;;;;6032428;23;20021;-82
2023/01/16 12:40:25;;;;;;;2.58;1.88;;;3.80;99.90;;;;;;6066820;23;20014;-81
2023/01/16 12:45:49;;;;;;;4.13;2.40;;;3.70;99.90;;;;;;6089929;23;20078;-80
2023/01/16 12:48:29;;;;;;;5.53;2.30;;;3.50;99.90;;;;;;6065330;23;20097;-78
2023/01/16 12:50:58;;;;;;;4.15;2.50;;;4.00;99.90;;;;;;6066321;23;20018;-78
2023/01/16 12:53:35;;;;;;;4.63;2.28;;;3.80;99.90;;;;;;6091052;23;20042;-78
2023/01/16 12:56:23;;;;;;;3.15;2.30;;;4.00;99.90;;;;;;6064835;23;20110;-79
2023/01/16 12:58:55;;;;;;;4.72;2.50;;;4.10;99.90;;;;;;6088083;23;20348;-81
2023/01/16 13:01:28;;;;;;;4.45;2.60;;;3.90;99.90;;;;;;6061747;23;20022;-79
2023/01/16 13:04:08;;;;;;;5.70;2.88;;;3.80;99.90;;;;;;6061177;23;20026;-78
2023/01/16 13:06:56;;;;;;;5.60;2.65;;;3.90;99.90;;;;;;6136528;23;20083;-78
2023/01/16 13:09:36;;;;;;;5.78;2.90;;;3.70;99.90;;;;;;6208107;23;20020;-80
2023/01/16 13:15:15;;;;;;;3.10;2.40;;;4.30;99.90;;;;;;6209175;23;20019;-80
2023/01/16 13:17:50;;;;;;;6.75;2.88;;;3.90;99.90;;;;;;6182179;23;20522;-79
2023/01/16 13:20:19;;;;;;;4.15;2.78;;;3.90;99.90;;;;;;6207588;23;20012;-81
2023/01/16 13:22:56;;;;;;;6.93;2.88;;;3.90;99.90;;;;;;6181706;23;20075;-79
2023/01/16 13:25:31;;;;;;;5.28;2.75;;;4.40;99.90;;;;;;6159247;23;20013;-79
2023/01/16 13:28:08;;;;;;;5.30;2.65;;;4.10;99.90;;;;;;6207106;23;20012;-81
2023/01/16 13:30:33;;;;;;;6.78;2.95;;;3.80;99.90;;;;;;6183687;23;20418;-77
2023/01/16 13:33:09;;;;;;;5.70;2.55;;;4.30;99.90;;;;;;6207700;23;20012;-79
2023/01/16 13:36:14;;;;;;;4.35;2.50;;;4.10;99.90;;;;;;6210335;23;20017;-80
2023/01/16 13:38:55;;;;;;;3.50;2.25;;;4.50;99.90;;;;;;6184048;23;20013;-80
2023/01/16 13:41:24;;;;;;;4.88;2.25;;;4.40;99.90;;;;;;6186909;23;20031;-80
2023/01/16 13:46:51;;;;;;;6.47;2.58;;;4.10;99.90;;;;;;6213772;23;20145;-78
2023/01/16 13:49:22;;;;;;;6.38;2.35;;;4.00;99.90;;;;;;6184791;23;20028;-79
2023/01/16 13:51:52;;;;;;;4.50;2.38;;;4.50;99.90;;;;;;6209017;23;20016;-79
2023/01/16 13:54:24;;;;;;;3.70;2.33;;;4.10;99.90;;;;;;6185858;23;20044;-80
2023/01/16 13:57:00;;;;;;;6.82;2.58;;;4.40;99.90;;;;;;6184511;23;20027;-79
2023/01/16 13:59:40;;;;;;;4.55;2.40;;;4.30;99.90;;;;;;6210337;23;20051;-79
2023/01/16 14:02:35;;;;;;;4.93;2.70;;;4.50;99.90;;;;;;6206841;23;20023;-79
2023/01/16 14:05:06;;;;;;;4.35;2.60;;;4.10;99.90;;;;;;6210087;23;20024;-79
2023/01/16 14:10:57;;;;;;;7.93;2.90;;;4.40;99.90;;;;;;6210712;23;20021;-80
2023/01/16 14:13:37;;;;;;;4.95;2.50;;;4.50;99.90;;;;;;6184238;23;20068;-81
2023/01/16 14:16:30;;;;;;;6.55;2.60;;;4.20;99.90;;;;;;6184109;23;20013;-80
2023/01/16 14:18:56;;;;;;;6.68;2.70;;;4.20;99.90;;;;;;6209650;23;20096;-81
2023/01/16 14:21:25;;;;;;;2.35;2.00;;;4.40;99.90;;;;;;6208469;23;20051;-81
2023/01/16 14:24:00;;;;;;;5.78;2.65;;;4.30;99.90;;;;;;6181539;23;20027;-82